Time;durP1;ratioP1;P1;durP2;ratioP2;P2;SDS_P1;SDS_P2;PMS_P1;PMS_P2;Temp;Humidity;BMP_temperature;BMP_pressure;BME280_temperature;BME280_humidity;BME280_pressure;Samples;Min_cycle;Max_cycle;Signal;HPM_P1;HPM_P2
2021/07/31 00:01:58;;;;;;;3.95;3.25;;;16.10;99.90;;;;;;6287112;22;20011;-85
2021/07/31 00:04:25;;;;;;;5.10;2.13;;;16.10;99.90;;;;;;6305779;22;20020;-86
2021/07/31 00:06:53;;;;;;;3.28;2.58;;;16.10;99.90;;;;;;6312465;22;20018;-85
2021/07/31 00:09:21;;;;;;;3.20;2.80;;;16.10;99.90;;;;;;6314449;22;20015;-85
2021/07/31 00:11:49;;;;;;;3.35;2.70;;;16.10;99.90;;;;;;6280343;22;20027;-88
2021/07/31 00:14:17;;;;;;;2.47;1.95;;;16.00;99.90;;;;;;6314996;22;20701;-86
2021/07/31 00:16:46;;;;;;;3.40;2.20;;;16.00;99.90;;;;;;6275697;22;20031;-86
2021/07/31 00:19:14;;;;;;;3.42;2.38;;;16.10;99.90;;;;;;6224731;22;20019;-85
2021/07/31 00:21:42;;;;;;;2.05;1.88;;;16.00;99.90;;;;;;6314689;22;20330;-87
2021/07/31 00:24:10;;;;;;;2.40;2.20;;;16.00;99.90;;;;;;6306342;22;20410;-89
2021/07/31 00:26:37;;;;;;;3.13;2.50;;;16.00;99.90;;;;;;6288430;22;20011;-90
2021/07/31 00:29:05;;;;;;;3.58;2.08;;;16.00;99.90;;;;;;6317541;22;20018;-87
2021/07/31 00:31:33;;;;;;;3.10;2.25;;;16.00;99.90;;;;;;6252274;22;20030;-88
2021/07/31 00:34:03;;;;;;;3.38;2.63;;;16.00;99.90;;;;;;6316680;22;20011;-85
2021/07/31 00:36:30;;;;;;;2.35;1.95;;;16.00;99.90;;;;;;6307251;22;20034;-86
2021/07/31 00:38:58;;;;;;;6.13;2.33;;;16.00;99.90;;;;;;6313813;22;20027;-86
2021/07/31 00:41:26;;;;;;;5.13;2.47;;;16.00;99.90;;;;;;6315318;22;20011;-85
2021/07/31 00:43:54;;;;;;;4.97;2.70;;;15.90;99.90;;;;;;6282886;22;20031;-85
2021/07/31 00:46:22;;;;;;;4.18;3.00;;;15.90;99.90;;;;;;6316988;22;20022;-88
2021/07/31 00:48:50;;;;;;;2.72;1.92;;;15.80;99.90;;;;;;6306147;22;20038;-88
2021/07/31 00:51:19;;;;;;;3.03;2.53;;;15.80;99.90;;;;;;6312180;22;20526;-87
2021/07/31 00:53:48;;;;;;;4.80;2.25;;;15.80;99.90;;;;;;6316582;22;20423;-86
2021/07/31 00:56:16;;;;;;;4.85;2.60;;;15.70;99.90;;;;;;6280368;22;20481;-87
2021/07/31 00:58:45;;;;;;;5.63;3.10;;;15.70;99.90;;;;;;6307754;22;20320;-86
2021/07/31 01:01:15;;;;;;;;;;;15.70;99.90;;;;;;6252583;22;20022;-85
2021/07/31 01:03:46;;;;;;;6.22;2.80;;;15.70;99.90;;;;;;6282768;22;19937;-86
2021/07/31 01:06:14;;;;;;;3.22;2.35;;;15.70;99.90;;;;;;6263729;22;20015;-89
2021/07/31 01:08:42;;;;;;;3.15;2.42;;;15.70;99.90;;;;;;6306567;22;20028;-89
2021/07/31 01:11:18;;;;;;;6.55;4.68;;;15.70;99.90;;;;;;6260032;22;20026;-85
2021/07/31 01:14:20;;;;;;;5.85;3.25;;;15.70;99.90;;;;;;6316756;22;20018;-87
2021/07/31 01:16:48;;;;;;;3.13;2.65;;;15.70;99.90;;;;;;6279008;22;20027;-85
2021/07/31 01:19:17;;;;;;;4.65;2.65;;;15.60;99.90;;;;;;6259236;22;20023;-85
2021/07/31 01:21:46;;;;;;;3.17;2.88;;;15.60;99.90;;;;;;6316257;22;20019;-87
2021/07/31 01:24:29;;;;;;;3.40;2.20;;;15.60;99.90;;;;;;6281426;22;20339;-92
2021/07/31 01:26:57;;;;;;;5.70;3.38;;;15.70;99.90;;;;;;6287950;22;20338;-86
2021/07/31 01:29:27;;;;;;;9.25;2.83;;;15.60;99.90;;;;;;6264214;22;20434;-87
2021/07/31 01:31:55;;;;;;;4.05;2.05;;;15.60;99.90;;;;;;6309316;22;20330;-78
2021/07/31 01:34:23;;;;;;;2.92;2.63;;;15.60;99.90;;;;;;6262905;22;20008;-78
2021/07/31 01:36:53;;;;;;;7.45;2.45;;;15.50;99.90;;;;;;6304426;22;20034;-78
2021/07/31 01:39:22;;;;;;;3.35;2.72;;;15.60;99.90;;;;;;6283031;22;20023;-78
2021/07/31 01:41:51;;;;;;;2.47;2.28;;;15.60;99.90;;;;;;6315950;22;20022;-79
2021/07/31 01:44:18;;;;;;;4.70;3.25;;;15.60;99.90;;;;;;6279981;22;20019;-79
2021/07/31 01:46:46;;;;;;;3.08;2.40;;;15.50;99.90;;;;;;6286655;22;20446;-79
2021/07/31 01:49:14;;;;;;;7.78;3.00;;;15.50;99.90;;;;;;6287957;22;20008;-79
2021/07/31 01:51:51;;;;;;;3.35;3.05;;;15.50;99.90;;;;;;6281713;22;20489;-79
2021/07/31 01:54:19;;;;;;;3.47;2.65;;;15.50;99.90;;;;;;6314905;22;20008;-79
2021/07/31 01:56:47;;;;;;;6.43;3.60;;;15.60;99.90;;;;;;6277767;22;20027;-85
2021/07/31 01:59:18;;;;;;;3.00;2.40;;;15.50;99.90;;;;;;6311685;22;20023;-86
2021/07/31 02:01:47;;;;;;;2.42;1.90;;;15.50;99.90;;;;;;6315970;22;20015;-85
2021/07/31 02:04:17;;;;;;;6.18;2.33;;;15.50;99.90;;;;;;6279487;22;20021;-87
2021/07/31 02:06:44;;;;;;;5.38;2.95;;;15.50;99.90;;;;;;6314407;22;20019;-87
2021/07/31 02:09:13;;;;;;;6.18;3.00;;;15.50;99.90;;;;;;6262946;22;20011;-80
2021/07/31 02:11:41;;;;;;;2.55;2.20;;;15.50;99.90;;;;;;6282310;22;20442;-79
2021/07/31 02:14:09;;;;;;;3.40;2.35;;;15.50;99.90;;;;;;6315696;22;20007;-80
2021/07/31 02:16:44;;;;;;;3.30;2.80;;;15.50;99.90;;;;;;6254236;22;20353;-79
2021/07/31 02:19:18;;;;;;;2.90;2.47;;;15.50;99.90;;;;;;6285072;22;20034;-79
2021/07/31 02:22:01;;;;;;;3.42;2.10;;;15.50;99.90;;;;;;6287812;22;20315;-79
2021/07/31 02:25:08;;;;;;;3.60;2.92;;;15.50;99.90;;;;;;6212397;23;20036;-80
2021/07/31 02:28:02;;;;;;;3.97;2.83;;;15.50;99.90;;;;;;6131975;23;20025;-80
2021/07/31 02:30:30;;;;;;;7.70;2.78;;;15.60;99.90;;;;;;6240283;22;20012;-80
2021/07/31 02:32:59;;;;;;;3.28;2.50;;;15.60;99.90;;;;;;6303567;22;20030;-80
2021/07/31 02:35:33;;;;;;;13.15;3.10;;;15.60;99.90;;;;;;6282545;22;20020;-80
2021/07/31 02:38:19;;;;;;;2.92;2.40;;;15.60;99.90;;;;;;6315124;22;20007;-80
2021/07/31 02:40:49;;;;;;;6.65;2.75;;;15.60;99.90;;;;;;6275789;22;20367;-80
2021/07/31 02:43:17;;;;;;;2.53;2.33;;;15.60;99.90;;;;;;6311342;22;20046;-87
2021/07/31 02:45:47;;;;;;;3.85;2.35;;;15.60;99.90;;;;;;6315247;22;20326;-87
2021/07/31 02:48:16;;;;;;;5.07;2.58;;;15.60;99.90;;;;;;6307009;22;20039;-86
2021/07/31 02:50:44;;;;;;;4.25;2.28;;;15.60;99.90;;;;;;6313558;22;20334;-80
2021/07/31 02:53:43;;;;;;;4.80;2.80;;;15.60;99.90;;;;;;6288251;22;20011;-87
2021/07/31 02:56:11;;;;;;;4.53;2.83;;;15.70;99.90;;;;;;6279124;22;20342;-80
2021/07/31 02:58:39;;;;;;;2.58;2.38;;;15.70;99.90;;;;;;6306949;22;20457;-87
2021/07/31 03:01:10;;;;;;;3.67;3.38;;;15.70;99.90;;;;;;6315706;22;20011;-80
2021/07/31 03:03:39;;;;;;;6.95;2.33;;;15.70;99.90;;;;;;6282559;22;20027;-87
2021/07/31 03:06:08;;;;;;;7.93;2.60;;;15.70;99.90;;;;;;6287845;22;20015;-87
2021/07/31 03:08:37;;;;;;;2.63;2.42;;;15.70;99.90;;;;;;6278299;22;20019;-87
2021/07/31 03:11:08;;;;;;;5.90;3.35;;;15.70;99.90;;;;;;6283884;22;20019;-87
2021/07/31 03:13:37;;;;;;;4.70;3.05;;;15.70;99.90;;;;;;6315279;22;20019;-87
2021/07/31 03:16:07;;;;;;;4.22;3.03;;;15.70;99.90;;;;;;6308009;22;20023;-87
2021/07/31 03:18:37;;;;;;;6.05;3.45;;;15.70;99.90;;;;;;6314281;22;20464;-86
2021/07/31 03:21:11;;;;;;;4.07;3.42;;;15.70;99.90;;;;;;6287334;22;20310;-80
2021/07/31 03:23:50;;;;;;;4.18;2.70;;;15.80;99.90;;;;;;6281786;22;20023;-87
2021/07/31 03:26:18;;;;;;;4.90;2.65;;;15.80;99.90;;;;;;6286956;22;20012;-87
2021/07/31 03:28:47;;;;;;;3.90;3.00;;;15.80;99.90;;;;;;6277557;22;20023;-87
2021/07/31 03:31:21;;;;;;;9.05;3.13;;;15.80;99.90;;;;;;6283663;22;20030;-87
2021/07/31 03:33:52;;;;;;;6.22;2.53;;;15.80;99.90;;;;;;6287301;22;20333;-87
2021/07/31 03:36:20;;;;;;;3.40;3.10;;;15.80;99.90;;;;;;6306591;22;20446;-87
2021/07/31 03:39:07;;;;;;;5.90;3.80;;;15.80;99.90;;;;;;6281444;22;20026;-87
2021/07/31 03:41:38;;;;;;;2.70;2.50;;;15.80;99.90;;;;;;6314371;22;20019;-87
2021/07/31 03:44:08;;;;;;;3.80;3.23;;;15.80;99.90;;;;;;6307200;22;20246;-87
2021/07/31 03:46:47;;;;;;;8.40;4.07;;;15.80;99.90;;;;;;6286715;22;20584;-87
2021/07/31 03:49:21;;;;;;;5.00;3.58;;;15.80;99.90;;;;;;6287897;22;20322;-80
2021/07/31 03:51:55;;;;;;;3.40;2.65;;;15.80;99.90;;;;;;6281551;22;20020;-87
2021/07/31 03:54:24;;;;;;;4.00;2.80;;;15.80;99.90;;;;;;6314563;22;20030;-86
2021/07/31 03:56:53;;;;;;;3.20;2.45;;;15.80;99.90;;;;;;6276849;22;20030;-85
2021/07/31 03:59:29;;;;;;;3.88;2.90;;;15.90;99.90;;;;;;6310628;22;20015;-86
2021/07/31 04:01:57;;;;;;;2.78;2.05;;;15.80;99.90;;;;;;6316782;22;20019;-86
2021/07/31 04:04:27;;;;;;;3.58;3.20;;;15.80;99.90;;;;;;6307870;22;20033;-87
2021/07/31 04:06:59;;;;;;;2.22;1.95;;;15.80;99.90;;;;;;6287375;22;20023;-80
2021/07/31 04:09:45;;;;;;;7.03;2.78;;;15.80;99.90;;;;;;6316418;22;20022;-80
2021/07/31 04:12:31;;;;;;;3.45;3.15;;;15.80;99.90;;;;;;6307605;22;20026;-86
2021/07/31 04:15:18;;;;;;;5.95;3.63;;;15.80;99.90;;;;;;6312812;22;20449;-81
2021/07/31 04:17:48;;;;;;;5.95;3.75;;;15.80;99.90;;;;;;6289688;22;20031;-80
2021/07/31 04:20:17;;;;;;;2.85;2.42;;;15.80;99.90;;;;;;6280358;22;20054;-80
2021/07/31 04:22:45;;;;;;;3.25;2.60;;;15.90;99.90;;;;;;6315454;22;20026;-81
2021/07/31 04:25:13;;;;;;;3.08;2.80;;;15.90;99.90;;;;;;6315850;22;20011;-80
2021/07/31 04:27:41;;;;;;;4.05;2.47;;;15.90;99.90;;;;;;6311003;22;20035;-80
2021/07/31 04:30:10;;;;;;;3.90;2.72;;;15.90;99.90;;;;;;6315981;22;20011;-81
2021/07/31 04:32:37;;;;;;;3.15;2.60;;;15.90;99.90;;;;;;6279691;22;20019;-80
2021/07/31 04:35:05;;;;;;;5.38;2.20;;;15.90;99.90;;;;;;6313601;22;20015;-87
2021/07/31 04:37:33;;;;;;;4.68;2.88;;;16.00;99.90;;;;;;6316940;22;20337;-87
2021/07/31 04:40:01;;;;;;;3.42;2.45;;;16.00;99.90;;;;;;6308633;22;20027;-87
2021/07/31 04:42:29;;;;;;;6.03;2.53;;;16.00;99.90;;;;;;6316713;22;20449;-87
2021/07/31 04:44:57;;;;;;;3.78;2.75;;;16.00;99.90;;;;;;6278484;22;20023;-86
2021/07/31 04:47:25;;;;;;;2.90;2.70;;;16.00;99.90;;;;;;6312436;22;20034;-87
2021/07/31 04:49:53;;;;;;;2.92;2.65;;;16.10;99.90;;;;;;6289218;22;20448;-87
2021/07/31 04:52:22;;;;;;;2.47;2.25;;;16.10;99.90;;;;;;6305669;22;20523;-86
2021/07/31 04:54:49;;;;;;;2.88;2.20;;;16.20;99.90;;;;;;6286432;22;20018;-87
2021/07/31 04:57:17;;;;;;;3.17;2.88;;;16.30;99.90;;;;;;6314552;22;20015;-87
2021/07/31 04:59:45;;;;;;;5.20;2.97;;;16.30;99.90;;;;;;6310657;22;20354;-87
2021/07/31 05:02:13;;;;;;;2.47;2.25;;;16.40;99.90;;;;;;6316821;22;20011;-87
2021/07/31 05:04:40;;;;;;;3.67;2.72;;;16.40;99.90;;;;;;6306513;22;20023;-86
2021/07/31 05:07:08;;;;;;;4.97;3.92;;;16.50;99.90;;;;;;6313464;22;20030;-86
2021/07/31 05:09:37;;;;;;;3.40;2.58;;;16.60;99.90;;;;;;6315411;22;20745;-86
2021/07/31 05:12:05;;;;;;;3.33;2.97;;;16.70;99.90;;;;;;6308255;22;20446;-87
2021/07/31 05:14:33;;;;;;;7.20;3.40;;;16.80;99.90;;;;;;6315565;22;20011;-85
2021/07/31 05:17:01;;;;;;;3.78;3.42;;;16.80;99.90;;;;;;6316724;22;20011;-86
2021/07/31 05:19:29;;;;;;;3.75;2.85;;;16.70;99.90;;;;;;6311426;22;20050;-85
2021/07/31 05:21:56;;;;;;;3.13;2.70;;;16.60;99.90;;;;;;6316017;22;20484;-86
2021/07/31 05:24:24;;;;;;;3.28;2.42;;;16.50;99.90;;;;;;6279473;22;20349;-80
2021/07/31 05:26:52;;;;;;;2.65;2.45;;;16.50;99.90;;;;;;6287089;22;20015;-80
2021/07/31 05:29:19;;;;;;;3.83;2.40;;;16.50;99.90;;;;;;6316344;22;20015;-80
2021/07/31 05:31:47;;;;;;;3.13;2.78;;;16.50;99.90;;;;;;6310316;22;20071;-86
2021/07/31 05:34:16;;;;;;;2.03;1.70;;;16.60;99.90;;;;;;6316037;22;20019;-86
2021/07/31 05:36:44;;;;;;;3.47;3.17;;;16.70;99.90;;;;;;6305666;22;20019;-86
2021/07/31 05:39:13;;;;;;;4.35;2.38;;;16.70;99.90;;;;;;6312502;22;20030;-86
2021/07/31 05:41:41;;;;;;;3.95;2.80;;;16.70;99.90;;;;;;6315426;22;20012;-86
2021/07/31 05:44:08;;;;;;;3.63;2.53;;;16.70;99.90;;;;;;6280998;22;20334;-87
2021/07/31 05:46:36;;;;;;;2.88;2.58;;;16.80;99.90;;;;;;6315012;22;20027;-87
2021/07/31 05:49:04;;;;;;;3.90;3.58;;;16.80;99.90;;;;;;6316096;22;20014;-86
2021/07/31 05:51:31;;;;;;;3.97;2.72;;;16.70;99.90;;;;;;6310544;22;20058;-86
2021/07/31 05:53:59;;;;;;;3.92;2.88;;;16.80;99.90;;;;;;6316053;22;20335;-85
2021/07/31 05:56:27;;;;;;;4.07;2.58;;;16.90;99.90;;;;;;6306053;22;20346;-84
2021/07/31 05:58:54;;;;;;;5.55;3.30;;;17.00;99.90;;;;;;6306626;22;20030;-85
2021/07/31 06:01:22;;;;;;;4.82;3.20;;;17.10;99.90;;;;;;6316293;22;20059;-86
2021/07/31 06:03:50;;;;;;;6.18;2.90;;;17.10;99.90;;;;;;6308776;22;20023;-85
2021/07/31 06:06:18;;;;;;;3.83;2.83;;;17.10;99.90;;;;;;6315608;22;20015;-86
2021/07/31 06:08:46;;;;;;;4.35;2.75;;;17.00;99.90;;;;;;6305720;22;20031;-86
2021/07/31 06:11:14;;;;;;;3.35;2.92;;;17.00;99.90;;;;;;6310895;22;20015;-86
2021/07/31 06:13:41;;;;;;;6.22;3.72;;;17.00;99.90;;;;;;6252046;22;20015;-85
2021/07/31 06:16:09;;;;;;;4.68;4.10;;;17.00;99.90;;;;;;6307704;22;20027;-86
2021/07/31 06:18:39;;;;;;;5.93;4.32;;;17.00;99.90;;;;;;6287070;22;20338;-85
2021/07/31 06:21:15;;;;;;;3.17;2.65;;;17.00;99.90;;;;;;6287569;22;20022;-86
2021/07/31 06:23:43;;;;;;;9.18;3.15;;;17.10;99.90;;;;;;6276603;22;20022;-86
2021/07/31 06:26:11;;;;;;;4.07;3.03;;;17.00;99.90;;;;;;6261962;22;20069;-85
2021/07/31 06:28:39;;;;;;;4.53;3.78;;;17.10;99.90;;;;;;6275947;22;20019;-86
2021/07/31 06:31:08;;;;;;;4.00;3.60;;;17.10;99.90;;;;;;6251530;22;20034;-86
2021/07/31 06:33:36;;;;;;;3.50;3.20;;;17.20;99.90;;;;;;6287957;22;20014;-86
2021/07/31 06:36:04;;;;;;;3.72;3.40;;;17.30;99.90;;;;;;6308304;22;20030;-86
2021/07/31 06:38:31;;;;;;;5.05;2.95;;;17.30;99.90;;;;;;6277591;22;20319;-86
2021/07/31 06:40:59;;;;;;;4.85;2.10;;;17.30;99.90;;;;;;6275099;22;20019;-86
2021/07/31 06:43:27;;;;;;;3.45;2.97;;;17.30;99.90;;;;;;6282839;22;20015;-86
2021/07/31 06:45:55;;;;;;;7.55;4.40;;;17.30;99.90;;;;;;6288146;22;20018;-85
2021/07/31 06:48:22;;;;;;;10.75;3.05;;;17.30;99.90;;;;;;6306669;22;20019;-81
2021/07/31 06:50:50;;;;;;;3.00;2.53;;;17.40;99.90;;;;;;6313009;22;20034;-81
2021/07/31 06:53:18;;;;;;;2.58;2.38;;;17.30;99.90;;;;;;6288098;22;20446;-81
2021/07/31 06:55:46;;;;;;;3.03;2.55;;;17.40;99.90;;;;;;6281080;22;20019;-81
2021/07/31 06:58:13;;;;;;;4.60;3.58;;;17.40;99.90;;;;;;6309151;22;20026;-80
2021/07/31 07:00:41;;;;;;;4.15;2.17;;;17.50;99.90;;;;;;6304835;22;20034;-80
2021/07/31 07:03:09;;;;;;;4.68;3.03;;;17.50;99.90;;;;;;6311897;22;20024;-80
2021/07/31 07:05:36;;;;;;;3.28;2.67;;;17.50;99.90;;;;;;6314860;22;20011;-80
2021/07/31 07:08:04;;;;;;;3.95;3.53;;;17.40;99.90;;;;;;6280641;22;20049;-80
2021/07/31 07:10:33;;;;;;;4.13;2.75;;;17.50;99.90;;;;;;6273718;22;20015;-80
2021/07/31 07:13:01;;;;;;;3.42;3.10;;;17.60;99.90;;;;;;6287730;22;20460;-80
2021/07/31 07:15:28;;;;;;;2.83;2.10;;;17.80;99.90;;;;;;6310490;22;20023;-80
2021/07/31 07:17:59;;;;;;;2.45;1.98;;;17.80;99.90;;;;;;6288111;22;20066;-80
2021/07/31 07:20:27;;;;;;;2.78;2.20;;;17.80;99.90;;;;;;6278533;22;20019;-80
2021/07/31 07:22:54;;;;;;;2.78;2.38;;;17.90;99.90;;;;;;6285254;22;20022;-80
2021/07/31 07:25:22;;;;;;;7.43;2.70;;;17.90;99.90;;;;;;6286863;22;20022;-80
2021/07/31 07:27:50;;;;;;;5.18;2.95;;;18.00;99.90;;;;;;6281226;22;20023;-80
2021/07/31 07:30:17;;;;;;;2.97;2.53;;;17.90;99.90;;;;;;6315097;22;20019;-81
2021/07/31 07:32:46;;;;;;;4.95;2.50;;;18.10;99.90;;;;;;6277266;22;20023;-80
2021/07/31 07:35:14;;;;;;;3.00;2.70;;;18.00;99.90;;;;;;6283933;22;20019;-81
2021/07/31 07:37:41;;;;;;;4.57;3.15;;;18.10;99.90;;;;;;6314847;22;20015;-80
2021/07/31 07:40:10;;;;;;;5.88;2.80;;;18.10;99.90;;;;;;6306149;22;20027;-80
2021/07/31 07:42:38;;;;;;;3.13;2.70;;;18.20;99.90;;;;;;6286818;22;20017;-80
2021/07/31 07:45:07;;;;;;;3.63;2.50;;;18.30;99.90;;;;;;6315182;22;20023;-80
2021/07/31 07:47:35;;;;;;;4.13;3.60;;;18.40;99.90;;;;;;6282410;22;20050;-81
2021/07/31 07:50:07;;;;;;;2.67;2.47;;;18.60;99.90;;;;;;6314371;22;20011;-85
2021/07/31 07:52:39;;;;;;;4.28;2.53;;;18.50;99.90;;;;;;6305005;22;20035;-85
2021/07/31 07:55:07;;;;;;;3.33;2.75;;;18.60;99.90;;;;;;6283977;22;20015;-85
2021/07/31 07:57:37;;;;;;;3.53;3.22;;;18.50;99.90;;;;;;6311424;22;20335;-86
2021/07/31 08:00:07;;;;;;;4.03;3.20;;;18.50;99.90;;;;;;6307399;22;20015;-86
2021/07/31 08:02:39;;;;;;;6.38;3.33;;;18.40;99.90;;;;;;6287599;22;20019;-88
2021/07/31 08:05:07;;;;;;;4.03;3.08;;;18.40;99.90;;;;;;6314271;22;20015;-81
2021/07/31 08:07:35;;;;;;;5.47;4.38;;;18.40;99.90;;;;;;6309865;22;20019;-81
2021/07/31 08:10:04;;;;;;;4.35;2.90;;;18.30;99.90;;;;;;6314127;22;20014;-81
2021/07/31 08:12:32;;;;;;;5.63;4.00;;;18.40;99.90;;;;;;6278268;22;20019;-81
2021/07/31 08:14:59;;;;;;;9.48;3.42;;;18.40;99.90;;;;;;6275399;22;20019;-81
2021/07/31 08:17:27;;;;;;;4.05;3.53;;;18.40;99.90;;;;;;6288065;22;20014;-81
2021/07/31 08:19:56;;;;;;;7.00;3.75;;;18.70;99.90;;;;;;6307681;22;20019;-87
2021/07/31 08:22:23;;;;;;;4.03;3.35;;;19.00;99.90;;;;;;6315005;22;20011;-81
2021/07/31 08:24:51;;;;;;;4.20;3.50;;;19.00;99.90;;;;;;6303944;22;20023;-81
2021/07/31 08:27:20;;;;;;;3.83;3.45;;;19.10;99.90;;;;;;6311099;22;20019;-81
2021/07/31 08:29:47;;;;;;;8.07;3.63;;;19.00;99.90;;;;;;6314905;22;20015;-81
2021/07/31 08:32:15;;;;;;;3.90;3.60;;;19.00;99.90;;;;;;6307167;22;20023;-86
2021/07/31 08:34:43;;;;;;;3.95;3.53;;;19.10;99.90;;;;;;6249762;22;20539;-81
2021/07/31 08:37:11;;;;;;;3.70;3.40;;;19.00;99.90;;;;;;6314261;22;20012;-81
2021/07/31 08:39:39;;;;;;;5.38;3.63;;;18.90;99.90;;;;;;6255320;22;20019;-82
2021/07/31 08:42:09;;;;;;;4.43;2.88;;;19.00;99.90;;;;;;6314050;22;20453;-81
2021/07/31 08:44:37;;;;;;;6.45;3.38;;;19.00;99.90;;;;;;6305383;22;20023;-88
2021/07/31 08:47:06;;;;;;;3.80;2.80;;;19.10;99.90;;;;;;6313642;22;20022;-87
2021/07/31 08:49:37;;;;;;;6.68;4.35;;;19.10;99.90;;;;;;6316428;22;20426;-87
2021/07/31 08:52:06;;;;;;;13.35;4.07;;;19.10;99.90;;;;;;6309401;22;20532;-86
2021/07/31 08:54:38;;;;;;;3.75;3.08;;;19.30;99.90;;;;;;6314601;22;20418;-81
2021/07/31 08:57:07;;;;;;;4.03;3.42;;;19.40;99.90;;;;;;6314568;22;20014;-81
2021/07/31 08:59:35;;;;;;;4.40;3.17;;;19.40;99.90;;;;;;6283235;22;20034;-81
2021/07/31 09:02:03;;;;;;;5.82;3.28;;;19.60;99.90;;;;;;6315787;22;20011;-81
2021/07/31 09:04:31;;;;;;;10.65;4.65;;;19.60;99.90;;;;;;6279613;22;20019;-81
2021/07/31 09:07:10;;;;;;;4.93;4.43;;;19.50;99.90;;;;;;6313830;22;20023;-81
2021/07/31 09:09:38;;;;;;;4.80;4.40;;;19.60;99.90;;;;;;6315923;22;20434;-87
2021/07/31 09:12:08;;;;;;;4.22;3.47;;;19.60;99.90;;;;;;6308669;22;20030;-87
2021/07/31 09:14:44;;;;;;;4.53;3.60;;;19.60;99.90;;;;;;6287946;22;20007;-87
2021/07/31 09:17:30;;;;;;;4.60;3.80;;;19.60;99.90;;;;;;6288855;22;20326;-87
2021/07/31 09:19:58;;;;;;;5.82;3.97;;;19.70;99.90;;;;;;6281973;22;20030;-87
2021/07/31 09:22:26;;;;;;;4.55;3.38;;;19.70;99.90;;;;;;6316402;22;20449;-81
2021/07/31 09:25:10;;;;;;;4.30;3.10;;;19.60;99.90;;;;;;6304955;22;20348;-85
2021/07/31 09:27:38;;;;;;;3.70;3.03;;;19.70;99.90;;;;;;6311231;22;20023;-81
2021/07/31 09:30:07;;;;;;;4.30;3.70;;;19.80;99.90;;;;;;6315790;22;20011;-81
2021/07/31 09:32:39;;;;;;;6.53;3.83;;;19.70;99.90;;;;;;6306539;22;20023;-81
2021/07/31 09:35:20;;;;;;;7.07;3.05;;;19.70;99.90;;;;;;6312745;22;20011;-81
2021/07/31 09:37:49;;;;;;;5.93;2.95;;;19.60;99.90;;;;;;6315911;22;20015;-81
2021/07/31 09:40:31;;;;;;;5.22;3.45;;;19.70;99.90;;;;;;6306678;22;20015;-82
2021/07/31 09:43:19;;;;;;;4.70;2.85;;;19.70;99.90;;;;;;6313675;22;20022;-82
2021/07/31 09:45:48;;;;;;;8.50;4.25;;;19.70;99.90;;;;;;6316020;22;20011;-81
2021/07/31 09:48:16;;;;;;;4.05;3.38;;;19.80;99.90;;;;;;6308057;22;20319;-81
2021/07/31 09:50:47;;;;;;;7.13;3.88;;;19.80;99.90;;;;;;6286960;22;20019;-81
2021/07/31 09:53:19;;;;;;;5.38;4.45;;;19.90;99.90;;;;;;6315846;22;20018;-81
2021/07/31 09:55:55;;;;;;;5.88;3.67;;;20.20;99.90;;;;;;6309485;22;20031;-87
2021/07/31 09:58:25;;;;;;;4.03;3.13;;;20.20;99.90;;;;;;6309090;22;20019;-84
2021/07/31 10:00:54;;;;;;;4.75;3.40;;;20.20;99.90;;;;;;6251432;22;20023;-84
2021/07/31 10:03:23;;;;;;;4.13;3.22;;;20.30;99.90;;;;;;6311051;22;20338;-84
2021/07/31 10:05:52;;;;;;;5.75;3.67;;;20.20;99.90;;;;;;6315585;22;20011;-84
2021/07/31 10:08:37;;;;;;;9.45;4.55;;;20.10;99.90;;;;;;6306360;22;20024;-83
2021/07/31 10:11:05;;;;;;;6.53;4.45;;;20.00;99.90;;;;;;6311742;22;20026;-83
2021/07/31 10:13:41;;;;;;;7.20;3.78;;;20.00;99.90;;;;;;6288572;22;20037;-84
2021/07/31 10:16:16;;;;;;;5.82;3.30;;;19.80;99.90;;;;;;6251370;22;20045;-83
2021/07/31 10:19:01;;;;;;;3.83;2.53;;;19.80;99.90;;;;;;6276198;22;20465;-82
2021/07/31 10:21:33;;;;;;;4.78;3.50;;;19.80;99.90;;;;;;6315153;22;20047;-81
2021/07/31 10:24:04;;;;;;;4.13;3.72;;;19.90;99.90;;;;;;6308434;22;20452;-83
2021/07/31 10:26:34;;;;;;;6.50;3.33;;;20.10;99.90;;;;;;6314021;22;20015;-82
2021/07/31 10:29:27;;;;;;;4.90;3.45;;;20.20;99.90;;;;;;6262816;22;20018;-82
2021/07/31 10:31:55;;;;;;;5.78;4.20;;;20.20;99.90;;;;;;6308759;22;20027;-82
2021/07/31 10:34:45;;;;;;;3.90;3.20;;;20.20;99.90;;;;;;6315184;22;20026;-81
2021/07/31 10:37:34;;;;;;;4.45;4.05;;;20.40;99.90;;;;;;6262588;22;20034;-82
2021/07/31 10:40:11;;;;;;;4.88;4.38;;;20.50;99.90;;;;;;6303413;22;20023;-82
2021/07/31 10:42:51;;;;;;;4.50;3.70;;;20.70;99.90;;;;;;6314079;22;20012;-82
2021/07/31 10:45:22;;;;;;;7.10;3.88;;;20.70;99.90;;;;;;6315730;22;20011;-82
2021/07/31 10:47:55;;;;;;;5.47;3.05;;;20.70;99.90;;;;;;6281751;22;20027;-85
2021/07/31 10:50:23;;;;;;;6.88;3.58;;;20.90;99.90;;;;;;6287133;22;20460;-82
2021/07/31 10:53:04;;;;;;;3.33;2.65;;;20.90;99.90;;;;;;6277891;22;20030;-82
2021/07/31 10:55:37;;;;;;;;;;;21.20;99.90;;;;;;6309564;22;20019;-81
2021/07/31 10:58:14;;;;;;;2.33;2.13;;;21.20;99.90;;;;;;6310024;22;19922;-82
2021/07/31 11:00:46;;;;;;;4.13;3.15;;;21.20;99.90;;;;;;6305626;22;20441;-82
2021/07/31 11:03:23;;;;;;;3.47;3.17;;;21.20;99.90;;;;;;6284852;22;20023;-81
2021/07/31 11:05:51;;;;;;;3.25;2.95;;;21.30;99.90;;;;;;6275878;22;20342;-82
2021/07/31 11:08:26;;;;;;;3.05;2.83;;;21.20;99.90;;;;;;6250440;22;20024;-81
2021/07/31 11:10:58;;;;;;;4.68;3.17;;;21.30;99.90;;;;;;6311773;22;20015;-81
2021/07/31 11:13:26;;;;;;;3.55;2.53;;;21.30;99.90;;;;;;6315477;22;20018;-81
2021/07/31 11:16:00;;;;;;;4.85;3.10;;;21.50;99.90;;;;;;6281592;22;20038;-81
2021/07/31 11:18:38;;;;;;;3.13;2.42;;;21.50;99.90;;;;;;6310120;22;20011;-82
2021/07/31 11:21:33;;;;;;;3.15;2.85;;;21.50;99.90;;;;;;6285621;22;20026;-82
2021/07/31 11:24:05;;;;;;;3.50;2.72;;;21.50;99.90;;;;;;6259056;22;20031;-81
2021/07/31 11:26:42;;;;;;;2.85;2.03;;;21.30;99.90;;;;;;6286628;22;20015;-81
2021/07/31 11:29:14;;;;;;;3.35;2.85;;;21.10;99.90;;;;;;6288189;22;20023;-82
2021/07/31 11:31:45;;;;;;;3.30;2.60;;;21.20;99.90;;;;;;6308913;22;20034;-82
2021/07/31 11:34:13;;;;;;;2.60;2.33;;;21.60;99.90;;;;;;6314241;22;20015;-83
2021/07/31 11:36:53;;;;;;;5.20;2.88;;;21.50;99.90;;;;;;6304396;22;20071;-81
2021/07/31 11:39:21;;;;;;;3.83;2.83;;;21.60;99.90;;;;;;6281686;22;20026;-83
2021/07/31 11:41:49;;;;;;;3.80;3.15;;;21.50;99.90;;;;;;6286207;22;20011;-84
2021/07/31 11:44:25;;;;;;;4.57;3.78;;;21.40;99.90;;;;;;6306578;22;20023;-80
2021/07/31 11:46:53;;;;;;;4.03;2.97;;;21.20;99.90;;;;;;6312735;22;20438;-81
2021/07/31 11:49:27;;;;;;;4.13;2.67;;;21.30;99.90;;;;;;6314795;22;20330;-81
2021/07/31 11:51:57;;;;;;;6.40;3.78;;;21.30;99.90;;;;;;6281308;22;20031;-82
2021/07/31 11:54:26;;;;;;;4.70;2.83;;;21.40;99.90;;;;;;6314102;22;20022;-82
2021/07/31 11:56:55;;;;;;;2.42;2.22;;;21.10;99.90;;;;;;6225134;22;20075;-83
2021/07/31 11:59:23;;;;;;;18.60;3.22;;;21.10;99.90;;;;;;6226073;22;20015;-81
2021/07/31 12:01:55;;;;;;;3.15;2.50;;;21.20;99.90;;;;;;6314579;22;20026;-81
2021/07/31 12:04:45;;;;;;;2.10;1.98;;;21.30;99.90;;;;;;6305844;22;20019;-84
2021/07/31 12:07:16;;;;;;;2.97;2.67;;;21.50;99.90;;;;;;6311556;22;20011;-85
2021/07/31 12:10:13;;;;;;;3.20;2.65;;;21.80;99.90;;;;;;6313869;22;20011;-83
2021/07/31 12:12:43;;;;;;;3.30;2.67;;;21.80;99.90;;;;;;6304727;22;20027;-84
2021/07/31 12:15:23;;;;;;;3.00;2.70;;;21.80;99.90;;;;;;6283790;22;20022;-82
2021/07/31 12:18:05;;;;;;;3.15;2.55;;;21.70;99.90;;;;;;6288864;22;20023;-82
2021/07/31 12:20:39;;;;;;;2.55;2.17;;;21.70;99.90;;;;;;6249695;22;20042;-84
2021/07/31 12:23:08;;;;;;;6.22;2.75;;;21.60;99.90;;;;;;6227119;22;20027;-84
2021/07/31 12:25:37;;;;;;;3.92;2.83;;;21.50;99.90;;;;;;6288733;22;20022;-84
2021/07/31 12:28:09;;;;;;;3.42;2.65;;;21.40;99.90;;;;;;6227184;22;20027;-84
2021/07/31 12:30:38;;;;;;;3.17;2.88;;;21.50;99.90;;;;;;6288448;22;20026;-85
2021/07/31 12:33:05;;;;;;;3.67;3.17;;;21.60;99.90;;;;;;6316712;22;20011;-83
2021/07/31 12:35:43;;;;;;;5.90;3.92;;;21.70;99.90;;;;;;6283741;22;20015;-83
2021/07/31 12:38:14;;;;;;;2.95;2.28;;;21.80;99.90;;;;;;6317030;22;20390;-83
2021/07/31 12:40:42;;;;;;;3.42;2.42;;;21.70;99.90;;;;;;6251205;22;20019;-84
2021/07/31 12:43:13;;;;;;;3.97;3.42;;;21.80;99.90;;;;;;6286372;22;20016;-85
2021/07/31 12:45:43;;;;;;;2.88;2.67;;;21.70;99.90;;;;;;6252290;22;20026;-83
2021/07/31 12:48:15;;;;;;;4.37;3.33;;;21.70;99.90;;;;;;6226683;22;20042;-83
2021/07/31 12:50:47;;;;;;;5.97;3.03;;;21.70;99.90;;;;;;6288384;22;20246;-83
2021/07/31 12:53:18;;;;;;;11.60;4.03;;;21.60;99.90;;;;;;6289372;22;20442;-84
2021/07/31 12:55:46;;;;;;;2.85;2.38;;;21.70;99.90;;;;;;6309650;22;20016;-82
2021/07/31 12:58:14;;;;;;;2.45;2.15;;;21.90;99.90;;;;;;6283367;22;20026;-82
2021/07/31 13:00:42;;;;;;;3.88;2.88;;;21.90;99.90;;;;;;6305157;22;20023;-82
2021/07/31 13:03:11;;;;;;;3.70;3.03;;;22.10;99.90;;;;;;6313157;22;20026;-82
2021/07/31 13:05:43;;;;;;;8.88;3.63;;;22.10;99.90;;;;;;6316031;22;20015;-84
2021/07/31 13:08:11;;;;;;;3.33;2.67;;;21.90;99.90;;;;;;6281390;22;20635;-82